Airfield :
LOGIN :

Register | Disclaimer

   EN    FR    IT 

 










Legend :    VFR   Marginal VFR   IFR   Intensive IFR   Very Intensive IFR
Visi :
Ceiling :
>= 8 km
>= 3000ft
5 to 8 km
1000 to 3000 ft
1500m to 5 km
500 to 1000 ft
800 to 1500m
200 to 500 ft
< 800m
< 200 ft
Symbols :   Thunderstorms  Fog  Heavy snow  Heavy precipitations  Wind > 20 kt
SIGMETs :     Misc.  Thunderstorms  Icing  Turbulence  Mountain Waves  Volcanic Ashes







- Airport Elevation : 242 ft
- IATA code : DUB


EIDW - Dublin

CURRENT METAR :
  • 211130Z 13005KT 9999 SCT002 BKN004 BKN009 17/16 Q1018 TEMPO 4000

EXPIRED METARs :
  • 211100Z 12005KT 080V150 9999 SCT002 BKN008 BKN050 17/16 Q1018 TEMPO 4000
  • 211030Z VRB03KT 7000 -RADZ FEW001 SCT003 BKN015 16/16 Q1018 TEMPO 4000 SCT003 BKN008
  • 211000Z 12005KT 100V170 6000 -RADZ FEW001 BKN003 BKN015 16/15 Q1018 TEMPO 2000 BKN002
  • 210930Z 14007KT 4500 -RADZ FEW001 BKN003 BKN012 15/15 Q1018 TEMPO 2000 BKN002
  • 210900Z 14007KT 6000 -RADZ FEW001 SCT002 BKN012 15/15 Q1018 TEMPO 2000 BKN002

TAF TAF EIDW
Valid from the 21 at 12:00 until the 22 at 12:00 UTC


211100Z 2112/2212 13005KT 4000 -RADZ SCT003 BKN008
BECMG 2112/2115 17006KT 9999 NSW SCT012 BKN020
BECMG 2115/2118 20007KT
BECMG 2201/2203 16004KT
PROB30
TEMPO 2201/2205 3000 BR BKN002
BECMG 2205/2208 14007KT 3000 -RADZ BR BKN004
PROB40
TEMPO 2206/2210 0400 FG SCT001 BKN002
BECMG 2208/2211 13012KT
No reported NOTAMs for that airfield.



MET'MAP, your aeronautical weather chart ! - Copyright ORBIFLY December 2007 - Disclaimer

ORBIFLY MET'MAP TEAM :

Programming & Development : Alexandra Zaïnal
Concept & Development : Baudouin d'Aumeries
Co-Development & Prog : Marc-Olivier Méhu
Technical & hardware support : Manuel Goepfert

Contact : metmap@orbifly.com




SOURCES & CREDITS :

   NOAA